sensor_id;sensor_type;location;lat;lon;timestamp;pressure;altitude;pressure_sealevel;temperature;humidity
38718;BME280;24468;52.128;9.278;2023-02-14T00:02:10;102737.16;;;3.29;100.00
38718;BME280;24468;52.128;9.278;2023-02-14T00:04:36;102735.47;;;3.34;100.00
38718;BME280;24468;52.128;9.278;2023-02-14T00:07:06;102733.59;;;3.27;100.00
38718;BME280;24468;52.128;9.278;2023-02-14T00:09:32;102742.41;;;3.24;100.00
38718;BME280;24468;52.128;9.278;2023-02-14T00:11:57;102742.59;;;2.93;100.00
38718;BME280;24468;52.128;9.278;2023-02-14T00:14:23;102739.22;;;3.01;100.00
38718;BME280;24468;52.128;9.278;2023-02-14T00:17:07;102739.56;;;3.17;100.00
38718;BME280;24468;52.128;9.278;2023-02-14T00:19:33;102734.13;;;3.10;100.00
38718;BME280;24468;52.128;9.278;2023-02-14T00:22:00;102735.19;;;3.20;100.00
38718;BME280;24468;52.128;9.278;2023-02-14T00:24:26;102736.91;;;3.17;100.00
38718;BME280;24468;52.128;9.278;2023-02-14T00:26:52;102746.47;;;3.07;100.00
38718;BME280;24468;52.128;9.278;2023-02-14T00:29:24;102729.03;;;3.23;100.00
38718;BME280;24468;52.128;9.278;2023-02-14T00:31:51;102734.34;;;3.21;100.00
38718;BME280;24468;52.128;9.278;2023-02-14T00:34:17;102734.41;;;3.24;100.00
38718;BME280;24468;52.128;9.278;2023-02-14T00:36:43;102737.16;;;3.29;100.00
38718;BME280;24468;52.128;9.278;2023-02-14T00:39:11;102738.16;;;2.93;100.00
38718;BME280;24468;52.128;9.278;2023-02-14T00:41:38;102736.97;;;3.20;100.00
38718;BME280;24468;52.128;9.278;2023-02-14T00:44:05;102743.31;;;3.25;100.00
38718;BME280;24468;52.128;9.278;2023-02-14T00:46:31;102746.75;;;3.21;100.00
38718;BME280;24468;52.128;9.278;2023-02-14T00:48:56;102741.47;;;3.22;100.00
38718;BME280;24468;52.128;9.278;2023-02-14T00:51:22;102734.38;;;3.23;100.00
38718;BME280;24468;52.128;9.278;2023-02-14T00:53:49;102732.06;;;2.99;100.00
38718;BME280;24468;52.128;9.278;2023-02-14T00:56:15;102739.34;;;3.06;100.00
38718;BME280;24468;52.128;9.278;2023-02-14T00:58:41;102742.91;;;3.06;100.00
38718;BME280;24468;52.128;9.278;2023-02-14T01:01:09;102735.72;;;3.02;100.00
38718;BME280;24468;52.128;9.278;2023-02-14T01:03:35;102733.78;;;2.95;100.00
38718;BME280;24468;52.128;9.278;2023-02-14T01:06:01;102744.72;;;3.07;100.00
38718;BME280;24468;52.128;9.278;2023-02-14T01:08:27;102749.13;;;3.05;100.00
38718;BME280;24468;52.128;9.278;2023-02-14T01:10:52;102744.25;;;2.87;100.00
38718;BME280;24468;52.128;9.278;2023-02-14T01:13:19;102754.22;;;2.95;100.00
38718;BME280;24468;52.128;9.278;2023-02-14T01:15:48;102752.94;;;2.79;100.00
38718;BME280;24468;52.128;9.278;2023-02-14T01:18:16;102749.00;;;2.99;100.00
38718;BME280;24468;52.128;9.278;2023-02-14T01:20:42;102752.56;;;3.00;100.00
38718;BME280;24468;52.128;9.278;2023-02-14T01:23:08;102747.50;;;3.14;100.00
38718;BME280;24468;52.128;9.278;2023-02-14T01:25:36;102743.03;;;3.12;100.00
38718;BME280;24468;52.128;9.278;2023-02-14T01:28:04;102750.91;;;3.06;100.00
38718;BME280;24468;52.128;9.278;2023-02-14T01:30:30;102757.84;;;2.98;100.00
38718;BME280;24468;52.128;9.278;2023-02-14T01:32:55;102752.50;;;2.98;100.00
38718;BME280;24468;52.128;9.278;2023-02-14T01:35:21;102751.31;;;2.84;100.00
38718;BME280;24468;52.128;9.278;2023-02-14T01:37:47;102752.13;;;2.81;100.00
38718;BME280;24468;52.128;9.278;2023-02-14T01:40:14;102751.25;;;2.82;100.00
38718;BME280;24468;52.128;9.278;2023-02-14T01:42:39;102749.75;;;2.94;100.00
38718;BME280;24468;52.128;9.278;2023-02-14T01:45:13;102748.81;;;2.93;100.00
38718;BME280;24468;52.128;9.278;2023-02-14T01:47:42;102752.31;;;2.89;100.00
38718;BME280;24468;52.128;9.278;2023-02-14T01:50:18;102754.38;;;3.02;100.00
38718;BME280;24468;52.128;9.278;2023-02-14T01:52:56;102754.47;;;3.07;100.00
38718;BME280;24468;52.128;9.278;2023-02-14T01:55:31;102758.84;;;3.03;100.00
38718;BME280;24468;52.128;9.278;2023-02-14T01:58:06;102752.50;;;2.98;100.00
38718;BME280;24468;52.128;9.278;2023-02-14T02:00:33;102753.44;;;3.00;100.00
38718;BME280;24468;52.128;9.278;2023-02-14T02:03:18;102750.13;;;3.10;100.00
38718;BME280;24468;52.128;9.278;2023-02-14T02:05:49;102752.44;;;2.95;100.00
38718;BME280;24468;52.128;9.278;2023-02-14T02:08:17;102742.13;;;3.10;100.00
38718;BME280;24468;52.128;9.278;2023-02-14T02:10:43;102742.19;;;3.15;100.00
38718;BME280;24468;52.128;9.278;2023-02-14T02:13:16;102738.94;;;3.28;100.00
38718;BME280;24468;52.128;9.278;2023-02-14T02:18:31;102740.41;;;3.14;100.00
38718;BME280;24468;52.128;9.278;2023-02-14T02:21:56;102737.16;;;3.29;100.00
38718;BME280;24468;52.128;9.278;2023-02-14T02:24:45;102731.38;;;3.07;100.00
38718;BME280;24468;52.128;9.278;2023-02-14T02:27:44;102727.91;;;3.10;100.00
38718;BME280;24468;52.128;9.278;2023-02-14T02:36:29;102723.63;;;3.18;100.00
38718;BME280;24468;52.128;9.278;2023-02-14T02:45:12;102713.44;;;3.00;100.00
38718;BME280;24468;52.128;9.278;2023-02-14T02:48:05;102711.91;;;3.11;100.00
38718;BME280;24468;52.128;9.278;2023-02-14T02:50:41;102703.22;;;3.22;100.00
38718;BME280;24468;52.128;9.278;2023-02-14T02:53:42;102705.56;;;3.06;100.00
38718;BME280;24468;52.128;9.278;2023-02-14T02:56:17;102700.19;;;3.03;100.00
38718;BME280;24468;52.128;9.278;2023-02-14T02:59:22;102705.84;;;3.19;100.00
38718;BME280;24468;52.128;9.278;2023-02-14T03:02:22;102695.00;;;3.11;100.00
38718;BME280;24468;52.128;9.278;2023-02-14T03:04:54;102693.75;;;2.94;100.00
38718;BME280;24468;52.128;9.278;2023-02-14T03:10:26;102690.50;;;3.08;100.00
38718;BME280;24468;52.128;9.278;2023-02-14T03:13:44;102690.09;;;2.88;100.00
38718;BME280;24468;52.128;9.278;2023-02-14T03:28:14;102693.66;;;2.89;100.00
38718;BME280;24468;52.128;9.278;2023-02-14T03:31:33;102688.31;;;2.89;100.00
38718;BME280;24468;52.128;9.278;2023-02-14T03:37:20;102679.44;;;2.90;100.00
38718;BME280;24468;52.128;9.278;2023-02-14T03:39:52;102685.41;;;2.78;100.00
38718;BME280;24468;52.128;9.278;2023-02-14T03:42:25;102687.50;;;2.93;100.00
38718;BME280;24468;52.128;9.278;2023-02-14T03:44:53;102676.13;;;3.00;100.00
38718;BME280;24468;52.128;9.278;2023-02-14T03:47:25;102680.34;;;2.90;100.00
38718;BME280;24468;52.128;9.278;2023-02-14T03:50:40;102679.44;;;2.90;100.00
38718;BME280;24468;52.128;9.278;2023-02-14T03:52:49;102675.06;;;2.92;100.00
38718;BME280;24468;52.128;9.278;2023-02-14T03:55:24;102676.44;;;3.16;100.00
38718;BME280;24468;52.128;9.278;2023-02-14T03:58:02;102681.94;;;3.25;100.00
38718;BME280;24468;52.128;9.278;2023-02-14T04:00:32;102678.28;;;3.20;100.00
38718;BME280;24468;52.128;9.278;2023-02-14T04:03:06;102671.84;;;3.08;100.00
38718;BME280;24468;52.128;9.278;2023-02-14T04:05:36;102673.66;;;3.11;100.00
38718;BME280;24468;52.128;9.278;2023-02-14T04:08:06;102668.91;;;2.96;100.00
38718;BME280;24468;52.128;9.278;2023-02-14T04:10:32;102671.78;;;3.07;100.00
38718;BME280;24468;52.128;9.278;2023-02-14T04:12:58;102669.19;;;3.08;100.00
38718;BME280;24468;52.128;9.278;2023-02-14T04:15:23;102676.47;;;3.17;100.00
38718;BME280;24468;52.128;9.278;2023-02-14T04:17:49;102676.22;;;3.06;100.00
38718;BME280;24468;52.128;9.278;2023-02-14T04:20:33;102674.47;;;3.07;100.00
38718;BME280;24468;52.128;9.278;2023-02-14T04:22:58;102676.22;;;3.05;100.00
38718;BME280;24468;52.128;9.278;2023-02-14T04:25:24;102666.38;;;3.02;100.00
38718;BME280;24468;52.128;9.278;2023-02-14T04:27:50;102661.25;;;2.71;100.00
38718;BME280;24468;52.128;9.278;2023-02-14T04:30:16;102669.59;;;2.86;100.00
38718;BME280;24468;52.128;9.278;2023-02-14T04:32:43;102664.28;;;2.87;100.00
38718;BME280;24468;52.128;9.278;2023-02-14T04:35:08;102665.09;;;2.83;100.00
38718;BME280;24468;52.128;9.278;2023-02-14T04:37:34;102671.97;;;2.72;100.00
38718;BME280;24468;52.128;9.278;2023-02-14T04:40:00;102662.97;;;2.67;100.00
38718;BME280;24468;52.128;9.278;2023-02-14T04:42:25;102661.72;;;2.92;100.00
38718;BME280;24468;52.128;9.278;2023-02-14T04:44:51;102653.84;;;2.98;100.00
38718;BME280;24468;52.128;9.278;2023-02-14T04:47:17;102652.91;;;2.96;100.00
38718;BME280;24468;52.128;9.278;2023-02-14T04:49:42;102643.88;;;2.88;100.00
38718;BME280;24468;52.128;9.278;2023-02-14T04:52:08;102648.16;;;2.81;100.00
38718;BME280;24468;52.128;9.278;2023-02-14T04:54:33;102651.22;;;3.01;100.00
38718;BME280;24468;52.128;9.278;2023-02-14T04:56:59;102653.69;;;2.90;100.00
38718;BME280;24468;52.128;9.278;2023-02-14T04:59:25;102666.88;;;2.83;100.00
38718;BME280;24468;52.128;9.278;2023-02-14T05:01:52;102661.31;;;2.74;100.00
38718;BME280;24468;52.128;9.278;2023-02-14T05:04:17;102654.97;;;2.67;100.00
38718;BME280;24468;52.128;9.278;2023-02-14T05:06:43;102654.72;;;2.56;100.00
38718;BME280;24468;52.128;9.278;2023-02-14T05:09:08;102644.63;;;2.41;100.00
38718;BME280;24468;52.128;9.278;2023-02-14T05:11:34;102653.91;;;2.60;100.00
38718;BME280;24468;52.128;9.278;2023-02-14T05:13:59;102651.53;;;2.73;100.00
38718;BME280;24468;52.128;9.278;2023-02-14T05:16:25;102652.88;;;2.54;100.00
38718;BME280;24468;52.128;9.278;2023-02-14T05:18:51;102645.47;;;2.80;100.00
38718;BME280;24468;52.128;9.278;2023-02-14T05:21:16;102636.41;;;2.72;100.00
38718;BME280;24468;52.128;9.278;2023-02-14T05:23:42;102637.31;;;2.74;100.00
38718;BME280;24468;52.128;9.278;2023-02-14T05:26:08;102644.19;;;2.61;100.00
38718;BME280;24468;52.128;9.278;2023-02-14T05:28:33;102645.19;;;2.67;100.00
38718;BME280;24468;52.128;9.278;2023-02-14T05:30:59;102648.56;;;2.59;100.00
38718;BME280;24468;52.128;9.278;2023-02-14T05:33:25;102651.34;;;2.63;100.00
38718;BME280;24468;52.128;9.278;2023-02-14T05:35:51;102639.09;;;2.72;100.00
38718;BME280;24468;52.128;9.278;2023-02-14T05:38:17;102647.91;;;2.69;100.00
38718;BME280;24468;52.128;9.278;2023-02-14T05:40:43;102653.72;;;2.51;100.00
38718;BME280;24468;52.128;9.278;2023-02-14T05:43:09;102659.06;;;2.51;100.00
38718;BME280;24468;52.128;9.278;2023-02-14T05:45:35;102657.47;;;2.59;100.00
38718;BME280;24468;52.128;9.278;2023-02-14T05:48:01;102658.78;;;2.03;100.00
38718;BME280;24468;52.128;9.278;2023-02-14T05:50:27;102658.47;;;2.27;100.00
38718;BME280;24468;52.128;9.278;2023-02-14T05:52:53;102664.56;;;2.21;100.00
38718;BME280;24468;52.128;9.278;2023-02-14T05:55:20;102659.69;;;2.39;100.00
38718;BME280;24468;52.128;9.278;2023-02-14T05:57:46;102660.63;;;2.41;100.00
38718;BME280;24468;52.128;9.278;2023-02-14T06:00:12;102666.78;;;2.40;100.00
38718;BME280;24468;52.128;9.278;2023-02-14T06:02:38;102661.53;;;2.43;100.00
38718;BME280;24468;52.128;9.278;2023-02-14T06:05:04;102665.84;;;2.38;100.00
38718;BME280;24468;52.128;9.278;2023-02-14T06:07:30;102658.03;;;2.44;100.00
38718;BME280;24468;52.128;9.278;2023-02-14T06:09:55;102657.97;;;2.43;100.00
38718;BME280;24468;52.128;9.278;2023-02-14T06:12:21;102662.72;;;2.56;100.00
38718;BME280;24468;52.128;9.278;2023-02-14T06:14:47;102653.47;;;2.40;100.00
38718;BME280;24468;52.128;9.278;2023-02-14T06:17:12;102664.00;;;2.36;100.00
38718;BME280;24468;52.128;9.278;2023-02-14T06:19:38;102664.94;;;2.36;100.00
38718;BME280;24468;52.128;9.278;2023-02-14T06:22:03;102669.63;;;2.48;100.00
38718;BME280;24468;52.128;9.278;2023-02-14T06:24:29;102673.09;;;2.44;100.00
38718;BME280;24468;52.128;9.278;2023-02-14T06:26:54;102662.53;;;2.47;100.00
38718;BME280;24468;52.128;9.278;2023-02-14T06:29:20;102674.56;;;2.31;100.00
38718;BME280;24468;52.128;9.278;2023-02-14T06:31:45;102674.97;;;2.48;100.00
38718;BME280;24468;52.128;9.278;2023-02-14T06:34:11;102668.81;;;2.51;100.00
38718;BME280;24468;52.128;9.278;2023-02-14T06:36:37;102668.81;;;2.52;100.00
38718;BME280;24468;52.128;9.278;2023-02-14T06:39:03;102678.66;;;2.55;100.00
38718;BME280;24468;52.128;9.278;2023-02-14T06:41:28;102671.66;;;2.20;100.00
38718;BME280;24468;52.128;9.278;2023-02-14T06:43:54;102688.09;;;2.40;100.00
38718;BME280;24468;52.128;9.278;2023-02-14T06:46:19;102675.72;;;2.42;100.00
38718;BME280;24468;52.128;9.278;2023-02-14T06:48:46;102681.84;;;2.38;100.00
38718;BME280;24468;52.128;9.278;2023-02-14T06:51:12;102680.19;;;2.43;100.00
38718;BME280;24468;52.128;9.278;2023-02-14T06:53:37;102677.81;;;2.56;100.00
38718;BME280;24468;52.128;9.278;2023-02-14T06:56:03;102673.38;;;2.56;100.00
38718;BME280;24468;52.128;9.278;2023-02-14T06:58:29;102678.06;;;2.66;100.00
38718;BME280;24468;52.128;9.278;2023-02-14T07:00:56;102681.50;;;2.62;100.00
38718;BME280;24468;52.128;9.278;2023-02-14T07:03:22;102684.81;;;2.52;100.00
38718;BME280;24468;52.128;9.278;2023-02-14T07:05:48;102677.69;;;2.50;100.00
38718;BME280;24468;52.128;9.278;2023-02-14T07:08:13;102684.09;;;2.59;100.00
38718;BME280;24468;52.128;9.278;2023-02-14T07:10:39;102686.00;;;2.65;100.00
38718;BME280;24468;52.128;9.278;2023-02-14T07:13:05;102688.03;;;2.77;100.00
38718;BME280;24468;52.128;9.278;2023-02-14T07:15:31;102688.13;;;2.80;100.00
38718;BME280;24468;52.128;9.278;2023-02-14T07:17:56;102694.97;;;2.68;100.00
38718;BME280;24468;52.128;9.278;2023-02-14T07:20:23;102688.97;;;2.77;100.00
38718;BME280;24468;52.128;9.278;2023-02-14T07:22:49;102678.06;;;2.66;100.00
38718;BME280;24468;52.128;9.278;2023-02-14T07:25:14;102683.47;;;2.70;100.00
38718;BME280;24468;52.128;9.278;2023-02-14T07:27:40;102683.53;;;2.73;100.00
38718;BME280;24468;52.128;9.278;2023-02-14T07:30:09;102683.78;;;2.85;100.00
38718;BME280;24468;52.128;9.278;2023-02-14T07:32:39;102682.28;;;2.98;100.00
38718;BME280;24468;52.128;9.278;2023-02-14T07:35:06;102688.38;;;2.92;100.00
38718;BME280;24468;52.128;9.278;2023-02-14T07:37:34;102685.47;;;2.81;100.00
38718;BME280;24468;52.128;9.278;2023-02-14T07:39:59;102683.00;;;2.90;100.00
38718;BME280;24468;52.128;9.278;2023-02-14T07:42:25;102684.13;;;3.00;100.00
38718;BME280;24468;52.128;9.278;2023-02-14T07:44:51;102686.13;;;3.10;100.00
38718;BME280;24468;52.128;9.278;2023-02-14T07:47:16;102685.06;;;3.02;100.00
38718;BME280;24468;52.128;9.278;2023-02-14T07:49:42;102690.16;;;2.93;100.00
38718;BME280;24468;52.128;9.278;2023-02-14T07:52:08;102689.69;;;3.12;100.00
38718;BME280;24468;52.128;9.278;2023-02-14T07:54:33;102685.13;;;3.05;100.00
38718;BME280;24468;52.128;9.278;2023-02-14T07:56:59;102686.00;;;3.06;100.00
38718;BME280;24468;52.128;9.278;2023-02-14T07:59:25;102689.69;;;3.12;100.00
38718;BME280;24468;52.128;9.278;2023-02-14T08:01:50;102692.19;;;3.03;100.00
38718;BME280;24468;52.128;9.278;2023-02-14T08:04:16;102700.44;;;3.16;100.00
38718;BME280;24468;52.128;9.278;2023-02-14T08:06:42;102698.03;;;3.28;100.00
38718;BME280;24468;52.128;9.278;2023-02-14T08:09:08;102697.63;;;3.08;100.00
38718;BME280;24468;52.128;9.278;2023-02-14T08:11:35;102686.44;;;3.27;100.00
38718;BME280;24468;52.128;9.278;2023-02-14T08:14:20;102691.97;;;3.37;100.00
38718;BME280;24468;52.128;9.278;2023-02-14T08:16:45;102690.13;;;3.32;100.00
38718;BME280;24468;52.128;9.278;2023-02-14T08:19:11;102686.88;;;3.49;100.00
38718;BME280;24468;52.128;9.278;2023-02-14T08:21:36;102682.53;;;3.54;100.00
38718;BME280;24468;52.128;9.278;2023-02-14T08:24:02;102675.56;;;3.62;100.00
38718;BME280;24468;52.128;9.278;2023-02-14T08:26:28;102672.22;;;3.74;100.00
38718;BME280;24468;52.128;9.278;2023-02-14T08:28:53;102683.69;;;3.70;100.00
38718;BME280;24468;52.128;9.278;2023-02-14T08:31:25;102680.88;;;3.61;100.00
38718;BME280;24468;52.128;9.278;2023-02-14T08:33:51;102680.97;;;3.67;100.00
38718;BME280;24468;52.128;9.278;2023-02-14T08:36:17;102681.94;;;3.70;100.00
38718;BME280;24468;52.128;9.278;2023-02-14T08:38:44;102683.81;;;3.76;100.00
38718;BME280;24468;52.128;9.278;2023-02-14T08:41:15;102685.00;;;3.93;100.00
38718;BME280;24468;52.128;9.278;2023-02-14T08:43:41;102679.44;;;3.81;100.00
38718;BME280;24468;52.128;9.278;2023-02-14T08:46:07;102677.94;;;3.95;100.00
38718;BME280;24468;52.128;9.278;2023-02-14T08:48:34;102682.38;;;3.96;100.00
38718;BME280;24468;52.128;9.278;2023-02-14T08:51:05;102684.31;;;4.05;100.00
38718;BME280;24468;52.128;9.278;2023-02-14T08:53:31;102673.19;;;4.32;100.00
38718;BME280;24468;52.128;9.278;2023-02-14T08:56:02;102670.75;;;4.48;100.00
38718;BME280;24468;52.128;9.278;2023-02-14T08:58:28;102672.84;;;4.72;100.00
38718;BME280;24468;52.128;9.278;2023-02-14T09:00:53;102670.25;;;4.76;100.00
38718;BME280;24468;52.128;9.278;2023-02-14T09:03:20;102663.78;;;4.59;100.00
38718;BME280;24468;52.128;9.278;2023-02-14T09:05:45;102661.34;;;4.76;100.00
38718;BME280;24468;52.128;9.278;2023-02-14T09:08:11;102663.34;;;4.94;100.00
38718;BME280;24468;52.128;9.278;2023-02-14T09:10:36;102661.56;;;4.93;100.00
38718;BME280;24468;52.128;9.278;2023-02-14T09:13:02;102651.84;;;5.01;100.00
38718;BME280;24468;52.128;9.278;2023-02-14T09:15:28;102667.22;;;5.17;100.00
38718;BME280;24468;52.128;9.278;2023-02-14T09:17:54;102656.75;;;5.40;100.00
38718;BME280;24468;52.128;9.278;2023-02-14T09:20:20;102662.38;;;5.63;100.00
38718;BME280;24468;52.128;9.278;2023-02-14T09:22:45;102655.28;;;5.70;100.00
38718;BME280;24468;52.128;9.278;2023-02-14T09:25:11;102650.88;;;5.73;100.00
38718;BME280;24468;52.128;9.278;2023-02-14T09:27:37;102643.84;;;5.88;100.00
38718;BME280;24468;52.128;9.278;2023-02-14T09:30:25;102646.25;;;5.57;100.00
38718;BME280;24468;52.128;9.278;2023-02-14T09:32:52;102649.19;;;5.85;100.00
38718;BME280;24468;52.128;9.278;2023-02-14T09:35:18;102640.31;;;5.90;100.00
38718;BME280;24468;52.128;9.278;2023-02-14T09:37:43;102631.44;;;5.97;100.00
38718;BME280;24468;52.128;9.278;2023-02-14T09:40:13;102629.69;;;5.98;100.00
38718;BME280;24468;52.128;9.278;2023-02-14T09:45:36;102630.69;;;6.14;100.00
38718;BME280;24468;52.128;9.278;2023-02-14T09:48:20;102622.72;;;6.23;100.00
38718;BME280;24468;52.128;9.278;2023-02-14T09:50:51;102628.25;;;6.55;100.00
38718;BME280;24468;52.128;9.278;2023-02-14T09:56:48;102627.41;;;6.56;100.00
38718;BME280;24468;52.128;9.278;2023-02-14T09:59:54;102627.31;;;6.47;100.00
38718;BME280;24468;52.128;9.278;2023-02-14T10:02:59;102622.97;;;6.66;100.00
38718;BME280;24468;52.128;9.278;2023-02-14T10:05:37;102623.13;;;7.07;100.00
38718;BME280;24468;52.128;9.278;2023-02-14T10:11:24;102613.31;;;7.09;100.00
38718;BME280;24468;52.128;9.278;2023-02-14T10:14:25;102612.50;;;7.40;100.00
38718;BME280;24468;52.128;9.278;2023-02-14T10:19:26;102612.56;;;7.73;100.00
38718;BME280;24468;52.128;9.278;2023-02-14T10:22:00;102608.94;;;7.90;100.00
38718;BME280;24468;52.128;9.278;2023-02-14T10:24:33;102605.34;;;8.17;100.00
38718;BME280;24468;52.128;9.278;2023-02-14T10:29:51;102599.94;;;8.35;100.00
38718;BME280;24468;52.128;9.278;2023-02-14T10:32:53;102600.84;;;8.28;100.00
38718;BME280;24468;52.128;9.278;2023-02-14T10:35:39;102600.84;;;8.43;100.00
38718;BME280;24468;52.128;9.278;2023-02-14T10:47:01;102580.13;;;8.70;100.00
38718;BME280;24468;52.128;9.278;2023-02-14T10:49:45;102576.56;;;8.65;100.00
38718;BME280;24468;52.128;9.278;2023-02-14T10:52:35;102573.84;;;8.76;100.00
38718;BME280;24468;52.128;9.278;2023-02-14T10:55:45;102567.44;;;8.94;100.00
38718;BME280;24468;52.128;9.278;2023-02-14T10:58:16;102568.56;;;8.46;100.00
38718;BME280;24468;52.128;9.278;2023-02-14T11:01:05;102565.56;;;9.12;100.00
38718;BME280;24468;52.128;9.278;2023-02-14T11:03:34;102556.25;;;9.56;100.00
38718;BME280;24468;52.128;9.278;2023-02-14T11:06:01;102561.88;;;9.30;100.00
38718;BME280;24468;52.128;9.278;2023-02-14T11:08:37;102552.69;;;9.56;100.00
38718;BME280;24468;52.128;9.278;2023-02-14T11:13:41;102539.81;;;9.90;100.00
38718;BME280;24468;52.128;9.278;2023-02-14T11:16:11;102540.91;;;9.69;100.00
38718;BME280;24468;52.128;9.278;2023-02-14T11:18:39;102553.78;;;9.30;100.00
38718;BME280;24468;52.128;9.278;2023-02-14T11:21:12;102540.00;;;9.67;100.00
38718;BME280;24468;52.128;9.278;2023-02-14T11:23:47;102541.78;;;9.70;100.00
38718;BME280;24468;52.128;9.278;2023-02-14T11:29:09;102529.06;;;9.86;100.00
38718;BME280;24468;52.128;9.278;2023-02-14T11:31:38;102518.81;;;10.20;100.00
38718;BME280;24468;52.128;9.278;2023-02-14T11:34:31;102519.81;;;10.11;100.00
38718;BME280;24468;52.128;9.278;2023-02-14T11:36:58;102514.13;;;10.39;100.00
38718;BME280;24468;52.128;9.278;2023-02-14T11:39:31;102510.19;;;10.67;100.00
38718;BME280;24468;52.128;9.278;2023-02-14T11:42:02;102505.66;;;10.68;100.00
38718;BME280;24468;52.128;9.278;2023-02-14T11:44:31;102502.34;;;10.48;100.00
38718;BME280;24468;52.128;9.278;2023-02-14T11:47:25;102496.06;;;10.44;100.00
38718;BME280;24468;52.128;9.278;2023-02-14T11:50:19;102487.78;;;10.59;100.00
38718;BME280;24468;52.128;9.278;2023-02-14T11:52:51;102483.66;;;10.97;100.00
38718;BME280;24468;52.128;9.278;2023-02-14T11:55:31;102479.66;;;11.23;100.00
38718;BME280;24468;52.128;9.278;2023-02-14T11:58:00;102466.91;;;11.31;100.00
38718;BME280;24468;52.128;9.278;2023-02-14T12:00:26;102464.50;;;11.14;100.00
38718;BME280;24468;52.128;9.278;2023-02-14T12:02:55;102462.91;;;11.53;100.00
38718;BME280;24468;52.128;9.278;2023-02-14T12:05:36;102470.78;;;11.15;100.00
38718;BME280;24468;52.128;9.278;2023-02-14T12:08:09;102462.84;;;11.58;100.00
38718;BME280;24468;52.128;9.278;2023-02-14T12:10:37;102467.06;;;11.73;100.00
38718;BME280;24468;52.128;9.278;2023-02-14T12:18:19;102447.13;;;11.78;100.00
38718;BME280;24468;52.128;9.278;2023-02-14T12:24:37;102437.97;;;11.89;100.00
38718;BME280;24468;52.128;9.278;2023-02-14T12:27:17;102435.09;;;11.96;100.00
38718;BME280;24468;52.128;9.278;2023-02-14T12:29:53;102434.81;;;12.10;100.00
38718;BME280;24468;52.128;9.278;2023-02-14T12:32:30;102430.56;;;11.98;100.00
38718;BME280;24468;52.128;9.278;2023-02-14T12:38:20;102426.00;;;12.00;100.00
38718;BME280;24468;52.128;9.278;2023-02-14T12:41:23;102418.03;;;11.93;100.00
38718;BME280;24468;52.128;9.278;2023-02-14T12:44:03;102419.03;;;12.32;100.00
38718;BME280;24468;52.128;9.278;2023-02-14T12:46:52;102412.44;;;12.02;100.00
38718;BME280;24468;52.128;9.278;2023-02-14T12:49:31;102421.03;;;11.76;100.00
38718;BME280;24468;52.128;9.278;2023-02-14T12:55:35;102401.16;;;12.64;100.00
38718;BME280;24468;52.128;9.278;2023-02-14T13:03:59;102387.50;;;12.30;100.00
38718;BME280;24468;52.128;9.278;2023-02-14T13:06:34;102377.47;;;12.72;100.00
38718;BME280;24468;52.128;9.278;2023-02-14T13:09:23;102372.38;;;12.19;100.00
38718;BME280;24468;52.128;9.278;2023-02-14T13:20:53;102362.81;;;12.82;100.00
38718;BME280;24468;52.128;9.278;2023-02-14T13:23:36;102359.44;;;12.73;100.00
38718;BME280;24468;52.128;9.278;2023-02-14T13:26:13;102349.00;;;12.56;100.00
38718;BME280;24468;52.128;9.278;2023-02-14T13:28:55;102348.38;;;12.82;100.00
38718;BME280;24468;52.128;9.278;2023-02-14T13:31:23;102347.94;;;12.61;100.00
38718;BME280;24468;52.128;9.278;2023-02-14T13:34:29;102337.53;;;12.82;100.00
38718;BME280;24468;52.128;9.278;2023-02-14T13:36:58;102326.69;;;12.44;100.00
38718;BME280;24468;52.128;9.278;2023-02-14T13:39:41;102322.84;;;12.55;100.00
38718;BME280;24468;52.128;9.278;2023-02-14T13:42:11;102322.00;;;12.88;100.00
38718;BME280;24468;52.128;9.278;2023-02-14T13:44:48;102322.00;;;12.88;100.00
38718;BME280;24468;52.128;9.278;2023-02-14T13:47:25;102319.56;;;12.78;100.00
38718;BME280;24468;52.128;9.278;2023-02-14T13:49:59;102313.00;;;12.88;100.00
38718;BME280;24468;52.128;9.278;2023-02-14T13:52:45;102308.53;;;12.85;100.00
38718;BME280;24468;52.128;9.278;2023-02-14T13:55:35;102305.38;;;13.04;99.27
38718;BME280;24468;52.128;9.278;2023-02-14T13:58:17;102304.75;;;12.93;99.62
38718;BME280;24468;52.128;9.278;2023-02-14T14:00:44;102306.44;;;12.97;100.00
38718;BME280;24468;52.128;9.278;2023-02-14T14:06:09;102300.84;;;13.04;98.95
38718;BME280;24468;52.128;9.278;2023-02-14T14:08:37;102292.16;;;13.24;99.65
38718;BME280;24468;52.128;9.278;2023-02-14T14:16:57;102286.41;;;13.69;93.52
38718;BME280;24468;52.128;9.278;2023-02-14T14:22:07;102275.66;;;13.96;89.95
38718;BME280;24468;52.128;9.278;2023-02-14T14:24:37;102269.50;;;14.19;87.99
38718;BME280;24468;52.128;9.278;2023-02-14T14:27:19;102280.34;;;14.47;86.91
38718;BME280;24468;52.128;9.278;2023-02-14T14:29:53;102278.78;;;14.40;87.23
38718;BME280;24468;52.128;9.278;2023-02-14T14:32:38;102268.16;;;14.32;83.17
38718;BME280;24468;52.128;9.278;2023-02-14T14:35:19;102272.13;;;14.20;86.32
38718;BME280;24468;52.128;9.278;2023-02-14T14:37:52;102265.59;;;14.28;85.36
38718;BME280;24468;52.128;9.278;2023-02-14T14:40:27;102262.34;;;14.16;85.19
38718;BME280;24468;52.128;9.278;2023-02-14T14:43:05;102272.19;;;13.91;83.42
38718;BME280;24468;52.128;9.278;2023-02-14T14:45:34;102265.09;;;14.15;81.17
38718;BME280;24468;52.128;9.278;2023-02-14T14:48:10;102261.13;;;14.27;82.64
38718;BME280;24468;52.128;9.278;2023-02-14T14:50:38;102256.88;;;14.18;80.78
38718;BME280;24468;52.128;9.278;2023-02-14T14:53:43;102258.84;;;14.13;80.36
38718;BME280;24468;52.128;9.278;2023-02-14T14:58:44;102252.50;;;14.12;81.50